Lake Dynasty — 3FZB2 — position and weather

sailwx.info

Track history (hours):
 
Tides and Currents Weather Stations Pressure Air Temp Water Temp Dewpoint Dewpoint Depression Visibility Wind Speed Wind Dir Waves Ship Positions

Lake Dynasty

Last reported at 2017-Dec-15 12:00 UTC. Time now 2017-Dec-15 12:05 UTC.
Position N 36°54' E 024°14'.

Length 182 m; draft 11.2 m.

Type: Cargo ship. MMSI: 370957000.

Date/timePositionNaut miles runAvg speedWind from/ knotsBaromVisibWave heightAir tempDewpointWater temp
2017-Dec-15 12:00N 36°54' E 024°14'713.7
2017-Dec-15 11:30N 36°50' E 024°07'713.5
2017-Dec-15 11:00N 36°45' E 024°01'4 7.9
2017-Dec-15 10:30N 36°42' E 023°57'713.6
2017-Dec-15 10:00N 36°37' E 023°51'713.5
2017-Dec-15 09:30N 36°32' E 023°46'913.3
2017-Dec-15 08:52N 36°26' E 023°38'513.3
2017-Dec-15 08:29N 36°23' E 023°34'42312.9
2017-Dec-13 23:48N 36°10' E 014°49'413.8
2017-Dec-13 23:30N 36°13' E 014°45'713.5
2017-Dec-13 23:00N 36°18' E 014°39'713.6
2017-Dec-13 22:30N 36°22' E 014°34'713.7
2017-Dec-13 22:00N 36°27' E 014°27'713.7
2017-Dec-13 21:31N 36°32' E 014°21'813.8
2017-Dec-13 20:57N 36°37' E 014°15'  
2017-Dec-07 17:14N 39°45' W 023°26'25213.1
2017-Dec-06 21:55N 40°36' W 028°49'  
Track history (hours):
 
Tides and Currents Weather Stations Pressure Air Temp Water Temp Dewpoint Dewpoint Depression Visibility Wind Speed Wind Dir Waves Ship Positions

Lake Dynasty

Last reported at 2017-Dec-15 12:00 UTC. Time now 2017-Dec-15 12:05 UTC.
Position N 36°54' E 024°14'.

Length 182 m; draft 11.2 m.

Type: Cargo ship. MMSI: 370957000.

Date/timePositionNaut miles runAvg speedWind from/ knotsBaromVisibWave heightAir tempDewpointWater temp
2017-Dec-15 12:00N 36°54' E 024°14'713.7
2017-Dec-15 11:30N 36°50' E 024°07'713.5
2017-Dec-15 11:00N 36°45' E 024°01'4 7.9
2017-Dec-15 10:30N 36°42' E 023°57'713.6
2017-Dec-15 10:00N 36°37' E 023°51'713.5
2017-Dec-15 09:30N 36°32' E 023°46'913.3
2017-Dec-15 08:52N 36°26' E 023°38'513.3
2017-Dec-15 08:29N 36°23' E 023°34'42312.9
2017-Dec-13 23:48N 36°10' E 014°49'413.8
2017-Dec-13 23:30N 36°13' E 014°45'713.5
2017-Dec-13 23:00N 36°18' E 014°39'713.6
2017-Dec-13 22:30N 36°22' E 014°34'713.7
2017-Dec-13 22:00N 36°27' E 014°27'713.7
2017-Dec-13 21:31N 36°32' E 014°21'813.8
2017-Dec-13 20:57N 36°37' E 014°15'  
2017-Dec-07 17:14N 39°45' W 023°26'25213.1
2017-Dec-06 21:55N 40°36' W 028°49'  

Dump ship's entire track history